Time;durP1;ratioP1;P1;durP2;ratioP2;P2;SDS_P1;SDS_P2;PMS_P1;PMS_P2;Temp;Humidity;BMP_temperature;BMP_pressure;BME280_temperature;BME280_humidity;BME280_pressure;Samples;Min_cycle;Max_cycle;Signal;HPM_P1;HPM_P2
2022/12/18 00:01:30;;;;;;;8.70;7.90;;;;;;;-6.25;100.00;102805.38;4914756;29;20059;-64
2022/12/18 00:03:57;;;;;;;9.25;8.40;;;;;;;-6.31;100.00;102802.06;4926446;29;20487;-64
2022/12/18 00:06:23;;;;;;;9.73;8.82;;;;;;;-6.34;100.00;102794.16;4909312;29;20028;-62
2022/12/18 00:08:48;;;;;;;9.77;8.88;;;;;;;-6.32;100.00;102783.41;4912137;29;20107;-65
2022/12/18 00:11:17;;;;;;;10.50;9.60;;;;;;;-6.24;100.00;102783.91;4911907;29;20437;-59
2022/12/18 00:13:43;;;;;;;9.98;9.10;;;;;;;-6.22;100.00;102791.88;4915540;29;20514;-64
2022/12/18 00:16:11;;;;;;;8.90;8.05;;;;;;;-6.20;100.00;102784.63;4925523;29;20031;-64
2022/12/18 00:18:36;;;;;;;9.50;8.60;;;;;;;-6.18;100.00;102777.38;4919766;29;20034;-65
2022/12/18 00:21:07;;;;;;;9.48;8.57;;;;;;;-6.17;100.00;102763.09;4914657;29;20032;-63
2022/12/18 00:23:34;;;;;;;9.65;8.75;;;;;;;-6.20;100.00;102768.56;4911970;29;20025;-64
2022/12/18 00:26:09;;;;;;;9.15;8.35;;;;;;;-6.24;100.00;102770.53;4913065;29;20044;-64
2022/12/18 00:28:34;;;;;;;9.73;8.82;;;;;;;-6.28;100.00;102774.31;4931178;29;20031;-63
2022/12/18 00:31:07;;;;;;;9.20;8.30;;;;;;;-6.30;100.00;102785.06;4927914;29;21555;-66
2022/12/18 00:33:33;;;;;;;10.18;9.18;;;;;;;-6.32;100.00;102770.91;4931150;29;20118;-66
2022/12/18 00:36:08;;;;;;;9.98;8.98;;;;;;;-6.32;100.00;102760.22;4925003;29;20114;-67
2022/12/18 00:38:34;;;;;;;9.00;8.20;;;;;;;-6.33;100.00;102766.50;4911510;29;20038;-64
2022/12/18 00:40:59;;;;;;;9.50;8.60;;;;;;;-6.35;100.00;102763.03;4929026;29;20028;-66
2022/12/18 00:43:25;;;;;;;9.73;8.82;;;;;;;-6.37;100.00;102767.59;4930111;29;20078;-63
2022/12/18 00:45:50;;;;;;;9.43;8.52;;;;;;;-6.40;100.00;102765.06;4927491;29;20075;-66
2022/12/18 00:48:15;;;;;;;9.45;8.55;;;;;;;-6.41;100.00;102765.13;4916177;29;20075;-65
2022/12/18 00:50:41;;;;;;;9.38;8.48;;;;;;;-6.46;100.00;102762.69;4930144;29;20031;-66
2022/12/18 00:53:09;;;;;;;9.10;8.27;;;;;;;-6.51;100.00;102764.72;4931527;29;20046;-67
2022/12/18 00:55:34;;;;;;;8.95;8.05;;;;;;;-6.56;100.00;102758.72;4929454;29;20046;-66
2022/12/18 00:58:00;;;;;;;9.55;8.68;;;;;;;-6.60;100.00;102754.47;4911499;29;20052;-66
2022/12/18 01:00:25;;;;;;;8.73;7.93;;;;;;;-6.66;100.00;102754.75;4912557;29;20119;-66
2022/12/18 01:02:50;;;;;;;8.98;8.18;;;;;;;-6.70;100.00;102756.69;4913012;29;20074;-67
2022/12/18 01:05:16;;;;;;;9.25;8.45;;;;;;;-6.71;100.00;102757.63;4930007;29;20031;-63
2022/12/18 01:07:41;;;;;;;8.80;8.00;;;;;;;-6.73;100.00;102762.19;4909320;29;20036;-66
2022/12/18 01:10:09;;;;;;;9.32;8.48;;;;;;;-6.70;100.00;102779.88;4912509;29;20099;-66
2022/12/18 01:12:34;;;;;;;9.10;8.30;;;;;;;-6.69;100.00;102782.50;4915974;29;20040;-66
2022/12/18 01:14:59;;;;;;;8.63;7.82;;;;;;;-6.68;100.00;102789.56;4921738;29;20031;-66
2022/12/18 01:17:25;;;;;;;8.98;8.18;;;;;;;-6.68;100.00;102797.59;4916336;29;20036;-65
2022/12/18 01:19:50;;;;;;;9.77;8.88;;;;;;;-6.68;100.00;102794.06;4911963;29;20637;-66
2022/12/18 01:22:16;;;;;;;9.00;8.20;;;;;;;-6.68;100.00;102796.72;4917642;29;20031;-65
2022/12/18 01:24:41;;;;;;;9.23;8.32;;;;;;;-6.72;100.00;102792.44;4930417;29;20024;-66
2022/12/18 01:27:06;;;;;;;8.82;7.93;;;;;;;-6.76;100.00;102780.16;4915250;29;20040;-64
2022/12/18 01:29:31;;;;;;;9.23;8.32;;;;;;;-6.78;100.00;102780.25;4912129;29;20086;-66
2022/12/18 01:31:57;;;;;;;9.50;8.60;;;;;;;-6.80;100.00;102780.28;4925574;29;20032;-67
2022/12/18 01:34:23;;;;;;;9.02;8.13;;;;;;;-6.80;100.00;102779.44;4930083;29;20032;-66
2022/12/18 01:36:48;;;;;;;9.23;8.43;;;;;;;-6.76;100.00;102774.81;4919066;29;20035;-66
2022/12/18 01:39:15;;;;;;;9.50;8.45;;;;;;;-6.76;100.00;102769.47;4926128;29;20114;-67
2022/12/18 01:44:47;;;;;;;8.40;7.60;;;;;;;-6.76;100.00;102769.47;4924925;29;20043;-67
2022/12/18 01:47:37;;;;;;;8.25;7.45;;;;;;;-6.81;100.00;102773.22;4911727;29;20096;-66
2022/12/18 01:50:08;;;;;;;9.25;8.35;;;;;;;-6.82;100.00;102773.31;4918998;29;20044;-64
2022/12/18 01:52:35;;;;;;;8.45;7.65;;;;;;;-6.87;100.00;102772.66;4911397;29;20032;-66
2022/12/18 01:55:03;;;;;;;9.07;8.18;;;;;;;-6.91;100.00;102766.56;4929618;29;20031;-67
2022/12/18 01:57:29;;;;;;;8.50;7.70;;;;;;;-6.93;100.00;102776.47;4929950;29;20031;-65
2022/12/18 01:59:59;;;;;;;8.70;7.90;;;;;;;-6.93;100.00;102781.81;4926385;29;20032;-67
2022/12/18 02:02:27;;;;;;;8.43;7.72;;;;;;;-6.92;100.00;102780.88;4911594;29;20055;-66
2022/12/18 02:04:52;;;;;;;8.38;7.57;;;;;;;-6.90;100.00;102768.31;4911856;29;20581;-67
2022/12/18 02:08:00;;;;;;;9.15;8.25;;;;;;;-6.86;100.00;102769.91;4958431;23;20048;-65
2022/12/18 02:11:02;;;;;;;8.40;7.60;;;;;;;-6.89;100.00;102759.38;4872386;29;20149;-66
2022/12/18 02:13:36;;;;;;;8.90;8.00;;;;;;;-6.89;100.00;102753.16;4896021;29;20142;-61
2022/12/18 02:16:16;;;;;;;8.77;7.97;;;;;;;-6.91;100.00;102752.34;4900867;29;20386;-64
2022/12/18 02:18:47;;;;;;;8.85;8.05;;;;;;;-6.94;100.00;102750.72;4912589;29;20043;-63
2022/12/18 02:21:36;;;;;;;8.38;7.57;;;;;;;-6.96;100.00;102757.91;4895106;29;20038;-67
2022/12/18 02:24:33;;;;;;;8.43;7.63;;;;;;;-6.95;100.00;102759.63;4876864;29;20476;-66
2022/12/18 02:27:02;;;;;;;8.32;7.53;;;;;;;-7.01;100.00;102757.25;4883504;29;20039;-67
2022/12/18 02:29:38;;;;;;;8.77;7.97;;;;;;;-7.06;100.00;102760.13;4907479;29;20037;-64
2022/12/18 02:32:09;;;;;;;8.35;7.60;;;;;;;-7.09;100.00;102767.44;4896094;29;20031;-66
2022/12/18 02:34:38;;;;;;;8.23;7.43;;;;;;;-7.12;100.00;102772.91;4910854;29;20051;-67
2022/12/18 02:37:07;;;;;;;8.55;7.75;;;;;;;-7.16;100.00;102763.28;4897887;29;20387;-63
2022/12/18 02:39:35;;;;;;;7.55;6.85;;;;;;;-7.21;100.00;102766.16;4894451;29;20032;-66
2022/12/18 02:42:07;;;;;;;7.95;7.20;;;;;;;-7.21;100.00;102765.31;4910962;29;20036;-67
2022/12/18 02:44:33;;;;;;;7.85;7.05;;;;;;;-7.21;100.00;102759.97;4913830;29;20035;-66
2022/12/18 02:46:58;;;;;;;7.75;7.05;;;;;;;-7.20;100.00;102759.03;4910138;29;20047;-66
2022/12/18 02:49:35;;;;;;;8.40;7.60;;;;;;;-7.19;100.00;102745.63;4913249;29;20588;-67
2022/12/18 02:52:27;;;;;;;8.00;7.20;;;;;;;-7.20;100.00;102735.84;4906315;29;20028;-67
2022/12/18 02:55:26;;;;;;;7.80;7.10;;;;;;;-7.19;100.00;102739.41;4895282;29;20035;-67
2022/12/18 02:58:00;;;;;;;7.50;6.80;;;;;;;-7.21;100.00;102741.28;4900954;29;20398;-66
2022/12/18 03:00:39;;;;;;;8.15;7.35;;;;;;;-7.21;100.00;102739.47;4908056;29;20526;-65
2022/12/18 03:03:26;;;;;;;8.18;7.38;;;;;;;-7.23;100.00;102749.34;4895135;29;20368;-67
2022/12/18 03:05:56;;;;;;;7.93;7.22;;;;;;;-7.22;100.00;102734.22;4902580;29;20558;-66
2022/12/18 03:08:26;;;;;;;7.90;7.10;;;;;;;-7.23;100.00;102743.16;4894302;29;20551;-63
2022/12/18 03:10:58;;;;;;;7.50;6.80;;;;;;;-7.22;100.00;102742.22;4893992;29;20043;-66
2022/12/18 03:13:31;;;;;;;7.65;6.95;;;;;;;-7.22;100.00;102734.22;4886349;29;20381;-67
2022/12/18 03:15:59;;;;;;;7.80;7.10;;;;;;;-7.22;100.00;102720.84;4885448;29;20037;-62
2022/12/18 03:18:30;;;;;;;;;;;;;;;-7.15;100.00;102727.63;4909185;29;20036;-67
2022/12/18 03:20:59;;;;;;;7.07;6.38;;;;;;;-7.20;100.00;102724.31;4912461;29;19919;-66
2022/12/18 03:23:29;;;;;;;7.13;6.43;;;;;;;-7.22;100.00;102715.53;4894814;29;20393;-67
2022/12/18 03:25:59;;;;;;;7.18;6.47;;;;;;;-7.24;100.00;102720.94;4889700;29;20029;-66
2022/12/18 03:28:27;;;;;;;7.00;6.30;;;;;;;-7.25;100.00;102729.00;4907821;29;20036;-66
2022/12/18 03:30:57;;;;;;;7.38;6.68;;;;;;;-7.31;100.00;102731.00;4875428;29;20040;-67
2022/12/18 03:33:31;;;;;;;7.00;6.30;;;;;;;-7.31;100.00;102725.66;4907037;29;20137;-66
2022/12/18 03:35:56;;;;;;;7.57;6.60;;;;;;;-7.33;100.00;102724.03;4908265;29;20137;-67
2022/12/18 03:38:22;;;;;;;7.63;6.82;;;;;;;-7.33;100.00;102721.34;4891804;29;20226;-66
2022/12/18 03:41:02;;;;;;;6.95;6.20;;;;;;;-7.31;100.00;102720.31;4892732;29;20089;-66
2022/12/18 03:43:34;;;;;;;6.82;6.13;;;;;;;-7.29;100.00;102720.28;4907027;29;20051;-66
2022/12/18 03:46:17;;;;;;;6.57;5.97;;;;;;;-7.24;100.00;102714.75;4878726;29;20523;-66
2022/12/18 03:48:50;;;;;;;6.63;6.03;;;;;;;-7.25;100.00;102713.84;4893270;29;20116;-67
2022/12/18 03:51:38;;;;;;;6.93;6.22;;;;;;;-7.24;100.00;102702.25;4901503;29;20039;-67
2022/12/18 03:54:06;;;;;;;6.78;6.18;;;;;;;-7.22;100.00;102696.84;4896855;29;20083;-67
2022/12/18 03:56:38;;;;;;;6.70;6.07;;;;;;;-7.22;100.00;102694.16;4892673;29;20063;-67
2022/12/18 03:59:05;;;;;;;7.00;6.30;;;;;;;-7.25;100.00;102702.31;4898509;29;20039;-67
2022/12/18 04:01:35;;;;;;;6.32;5.75;;;;;;;-7.24;100.00;102696.06;4907907;29;20029;-66
2022/12/18 04:04:02;;;;;;;6.45;5.85;;;;;;;-7.26;100.00;102684.56;4905587;29;20044;-66
2022/12/18 04:06:29;;;;;;;6.75;6.15;;;;;;;-7.27;100.00;102680.16;4899301;29;20107;-65
2022/12/18 04:08:56;;;;;;;6.40;5.80;;;;;;;-7.28;100.00;102676.63;4885472;29;20037;-66
2022/12/18 04:11:21;;;;;;;6.45;5.80;;;;;;;-7.27;100.00;102666.81;4893495;29;20044;-67
2022/12/18 04:13:46;;;;;;;6.82;6.22;;;;;;;-7.27;100.00;102667.69;4891412;29;20387;-68
2022/12/18 04:16:12;;;;;;;6.47;5.88;;;;;;;-7.27;100.00;102664.16;4895212;29;20483;-65
2022/12/18 04:18:37;;;;;;;6.47;5.88;;;;;;;-7.28;100.00;102665.94;4907992;29;20435;-61
2022/12/18 04:21:03;;;;;;;6.53;5.93;;;;;;;-7.31;100.00;102671.41;4910949;29;20035;-67
2022/12/18 04:23:28;;;;;;;6.40;5.80;;;;;;;-7.30;100.00;102670.47;4909112;29;20115;-67
2022/12/18 04:25:53;;;;;;;6.70;6.10;;;;;;;-7.29;100.00;102663.38;4891831;29;20033;-67
2022/12/18 04:28:19;;;;;;;6.45;5.85;;;;;;;-7.27;100.00;102664.16;4891985;29;20061;-66
2022/12/18 04:30:47;;;;;;;6.60;6.00;;;;;;;-7.29;100.00;102658.88;4893424;29;20384;-67
2022/12/18 04:33:16;;;;;;;;;;;;;;;-7.25;100.00;102662.25;4899156;29;20035;-67
2022/12/18 04:35:42;;;;;;;6.18;5.57;;;;;;;-7.32;100.00;102659.88;4903312;29;19927;-67
2022/12/18 04:38:10;;;;;;;6.20;5.60;;;;;;;-7.33;100.00;102666.16;4889790;29;20039;-63
2022/12/18 04:40:37;;;;;;;5.97;5.43;;;;;;;-7.35;100.00;102673.38;4891649;29;20039;-64
2022/12/18 04:43:03;;;;;;;6.15;5.55;;;;;;;-7.35;100.00;102678.72;4904103;29;20047;-67
2022/12/18 04:45:29;;;;;;;6.20;5.60;;;;;;;-7.37;100.00;102682.38;4895574;29;20033;-62
2022/12/18 04:47:57;;;;;;;6.30;5.70;;;;;;;-7.39;100.00;102689.59;4875430;29;20398;-67
2022/12/18 04:50:22;;;;;;;6.10;5.50;;;;;;;-7.38;100.00;102686.00;4874433;29;20124;-66
2022/12/18 04:52:48;;;;;;;6.30;5.70;;;;;;;-7.38;100.00;102686.00;4902156;29;20439;-67
2022/12/18 04:55:13;;;;;;;5.90;5.32;;;;;;;-7.37;100.00;102693.91;4908254;29;20037;-65
2022/12/18 04:57:38;;;;;;;6.18;5.28;;;;;;;-7.38;100.00;102702.00;4891587;29;20040;-66
2022/12/18 05:00:05;;;;;;;6.00;5.45;;;;;;;-7.40;100.00;102715.44;4893453;29;20022;-67
2022/12/18 05:02:31;;;;;;;6.05;5.45;;;;;;;-7.41;100.00;102712.81;4893063;29;20032;-67
2022/12/18 05:04:56;;;;;;;5.70;5.13;;;;;;;-7.41;100.00;102708.34;4892877;29;20809;-67
2022/12/18 05:07:21;;;;;;;5.88;5.28;;;;;;;-7.41;100.00;102715.47;4890669;29;20437;-65
2022/12/18 05:09:47;;;;;;;5.47;4.97;;;;;;;-7.44;100.00;102713.81;4896893;29;20032;-64
2022/12/18 05:12:12;;;;;;;5.93;5.40;;;;;;;-7.46;100.00;102715.69;4910292;29;20753;-67
2022/12/18 05:14:37;;;;;;;5.85;5.28;;;;;;;-7.47;100.00;102711.28;4899757;29;20029;-62
2022/12/18 05:17:02;;;;;;;5.30;4.80;;;;;;;-7.51;100.00;102720.34;4892284;29;20064;-67
2022/12/18 05:19:28;;;;;;;5.80;5.30;;;;;;;-7.51;100.00;102716.81;4909266;29;20112;-64
2022/12/18 05:21:53;;;;;;;5.88;5.28;;;;;;;-7.54;100.00;102720.50;4910249;29;20059;-66
2022/12/18 05:24:18;;;;;;;5.65;5.10;;;;;;;-7.57;100.00;102720.63;4911308;29;20463;-67
2022/12/18 05:26:44;;;;;;;5.93;5.38;;;;;;;-7.57;100.00;102718.81;4894979;29;20036;-67
2022/12/18 05:29:12;;;;;;;5.40;4.90;;;;;;;-7.56;100.00;102714.34;4892581;29;20025;-63
2022/12/18 05:31:37;;;;;;;5.55;5.05;;;;;;;-7.61;100.00;102701.22;4893030;29;20057;-63
2022/12/18 05:34:02;;;;;;;5.32;4.82;;;;;;;-7.63;100.00;102702.22;4892010;29;20115;-67
2022/12/18 05:36:28;;;;;;;5.60;5.00;;;;;;;-7.65;100.00;102704.13;4893110;29;20036;-67
2022/12/18 05:38:53;;;;;;;5.32;4.82;;;;;;;-7.66;100.00;102707.69;4909640;29;20024;-66
2022/12/18 05:41:18;;;;;;;5.53;5.03;;;;;;;-7.64;100.00;102712.03;4908044;29;20025;-66
2022/12/18 05:43:44;;;;;;;5.45;4.95;;;;;;;-7.61;100.00;102708.34;4908346;29;20035;-66
2022/12/18 05:46:13;;;;;;;5.45;4.95;;;;;;;-7.57;100.00;102707.28;4895058;29;20016;-66
2022/12/18 05:48:38;;;;;;;5.60;5.10;;;;;;;-7.52;100.00;102696.41;4894681;29;20036;-67
2022/12/18 05:51:07;;;;;;;5.32;4.82;;;;;;;-7.49;100.00;102689.16;4912690;29;20044;-67
2022/12/18 05:53:32;;;;;;;;;;;;;;;-7.41;100.00;102678.13;4895426;29;20032;-67
2022/12/18 05:56:01;;;;;;;5.53;5.03;;;;;;;-7.43;100.00;102672.00;4894690;29;19923;-62
2022/12/18 05:58:26;;;;;;;5.75;5.15;;;;;;;-7.43;100.00;102672.00;4895164;29;20043;-67
2022/12/18 06:00:51;;;;;;;5.43;4.93;;;;;;;-7.46;100.00;102672.97;4894645;29;20032;-67
2022/12/18 06:03:16;;;;;;;5.70;5.10;;;;;;;-7.47;100.00;102678.41;4895367;29;20033;-67
2022/12/18 06:05:44;;;;;;;5.22;4.70;;;;;;;-7.47;100.00;102670.38;4895170;29;20039;-66
2022/12/18 06:08:11;;;;;;;5.50;5.00;;;;;;;-7.45;100.00;102671.19;4894117;29;20044;-66
2022/12/18 06:10:37;;;;;;;5.40;4.90;;;;;;;-7.42;100.00;102669.25;4909027;29;20068;-66
2022/12/18 06:13:03;;;;;;;5.20;4.70;;;;;;;-7.39;100.00;102663.78;4899913;29;20048;-62
2022/12/18 06:15:28;;;;;;;5.30;4.80;;;;;;;-7.37;100.00;102659.22;4895308;29;20024;-66
2022/12/18 06:17:54;;;;;;;5.70;5.10;;;;;;;-7.35;100.00;102660.03;4893921;29;20123;-66
2022/12/18 06:20:19;;;;;;;5.38;4.88;;;;;;;-7.34;100.00;102664.44;4894873;29;20380;-66
2022/12/18 06:22:45;;;;;;;5.13;4.72;;;;;;;-7.31;100.00;102669.63;4893720;29;20092;-67
2022/12/18 06:25:10;;;;;;;5.63;5.13;;;;;;;-7.28;100.00;102675.75;4895799;29;20039;-64
2022/12/18 06:27:35;;;;;;;5.45;4.95;;;;;;;-7.26;100.00;102679.22;4894220;29;20048;-66
2022/12/18 06:30:01;;;;;;;5.53;5.03;;;;;;;-7.24;100.00;102685.38;4895621;29;20033;-66
2022/12/18 06:32:27;;;;;;;5.40;4.90;;;;;;;-7.27;100.00;102678.34;4894858;29;20463;-66
2022/12/18 06:34:53;;;;;;;5.32;4.82;;;;;;;-7.33;100.00;102679.50;4893210;29;20032;-66
2022/12/18 06:37:18;;;;;;;5.40;4.90;;;;;;;-7.35;100.00;102676.06;4903357;29;20032;-66
2022/12/18 06:39:44;;;;;;;5.53;5.03;;;;;;;-7.38;100.00;102661.97;4913440;29;20566;-63
2022/12/18 06:42:09;;;;;;;5.40;4.90;;;;;;;-7.42;100.00;102666.56;4904259;29;20040;-64
2022/12/18 06:44:34;;;;;;;5.15;4.65;;;;;;;-7.45;100.00;102669.41;4903731;29;20036;-66
2022/12/18 06:47:00;;;;;;;5.50;5.00;;;;;;;-7.48;100.00;102664.19;4906959;29;20032;-67
2022/12/18 06:49:25;;;;;;;5.40;4.90;;;;;;;-7.50;100.00;102654.50;4913900;29;20122;-66
2022/12/18 06:51:50;;;;;;;5.45;4.95;;;;;;;-7.51;100.00;102658.97;4891657;29;20036;-63
2022/12/18 06:54:15;;;;;;;5.38;4.88;;;;;;;-7.52;100.00;102651.91;4895188;29;20104;-66
2022/12/18 06:56:41;;;;;;;5.68;5.18;;;;;;;-7.51;100.00;102658.13;4893943;29;20104;-63
2022/12/18 06:59:06;;;;;;;5.32;4.82;;;;;;;-7.52;100.00;102651.91;4894408;29;20372;-67
2022/12/18 07:01:31;;;;;;;5.45;4.95;;;;;;;-7.52;100.00;102651.91;4893459;29;20036;-63
2022/12/18 07:03:57;;;;;;;5.68;5.15;;;;;;;-7.52;100.00;102657.25;4893357;29;20506;-67
2022/12/18 07:06:24;;;;;;;5.38;4.88;;;;;;;-7.52;100.00;102651.91;4893611;29;20039;-66
2022/12/18 07:08:51;;;;;;;5.95;5.38;;;;;;;-7.51;100.00;102650.13;4894571;29;20432;-66
2022/12/18 07:11:17;;;;;;;5.50;5.00;;;;;;;-7.53;100.00;102647.53;4892512;29;20044;-66
2022/12/18 07:13:43;;;;;;;5.75;5.15;;;;;;;-7.53;100.00;102642.19;4894632;29;20104;-67
2022/12/18 07:16:11;;;;;;;5.65;5.15;;;;;;;-7.53;100.00;102639.53;4902893;29;20040;-66
2022/12/18 07:18:36;;;;;;;;;;;;;;;-7.46;100.00;102634.75;4897739;29;20120;-67
2022/12/18 07:21:04;;;;;;;5.75;5.25;;;;;;;-7.49;100.00;102619.78;4892265;29;20022;-65
2022/12/18 07:23:29;;;;;;;5.43;4.93;;;;;;;-7.47;100.00;102623.22;4904128;29;20391;-66
2022/12/18 07:25:55;;;;;;;5.43;4.85;;;;;;;-7.47;100.00;102617.03;4912639;29;20032;-66
2022/12/18 07:28:20;;;;;;;5.78;5.28;;;;;;;-7.47;100.00;102617.88;4896852;29;20091;-66
2022/12/18 07:30:45;;;;;;;5.15;4.72;;;;;;;-7.48;100.00;102613.50;4898767;29;20040;-67
2022/12/18 07:33:10;;;;;;;5.55;5.05;;;;;;;-7.48;100.00;102605.47;4902956;29;20043;-66
2022/12/18 07:35:37;;;;;;;5.57;5.07;;;;;;;-7.45;100.00;102596.47;4908735;29;20043;-67
2022/12/18 07:38:02;;;;;;;5.78;5.28;;;;;;;-7.43;100.00;102587.47;4896987;29;20037;-67
2022/12/18 07:40:27;;;;;;;5.97;5.40;;;;;;;-7.37;100.00;102589.84;4894022;29;20045;-67
2022/12/18 07:42:53;;;;;;;6.43;5.82;;;;;;;-7.28;100.00;102587.69;4891716;29;20157;-66
2022/12/18 07:45:18;;;;;;;5.68;5.18;;;;;;;-7.23;100.00;102588.31;4893680;29;20032;-62
2022/12/18 07:47:43;;;;;;;5.85;5.28;;;;;;;-7.19;100.00;102581.91;4895705;29;20459;-67
2022/12/18 07:50:09;;;;;;;5.70;5.20;;;;;;;-7.11;100.00;102572.56;4912607;29;20032;-66
2022/12/18 07:52:34;;;;;;;6.18;5.40;;;;;;;-7.01;100.00;102574.78;4913020;29;20513;-68
2022/12/18 07:54:59;;;;;;;5.40;4.90;;;;;;;-6.93;100.00;102560.13;4900475;29;20051;-62
2022/12/18 07:57:25;;;;;;;6.45;5.60;;;;;;;-6.84;100.00;102557.03;4893678;29;20396;-66
2022/12/18 07:59:50;;;;;;;6.03;5.50;;;;;;;-6.77;100.00;102548.69;4893810;29;20123;-66
2022/12/18 08:02:15;;;;;;;6.13;5.53;;;;;;;-6.70;100.00;102555.44;4894750;29;20152;-67
2022/12/18 08:04:41;;;;;;;5.72;5.22;;;;;;;-6.59;100.00;102558.44;4912962;29;20474;-66
2022/12/18 08:07:06;;;;;;;5.97;5.45;;;;;;;-6.47;100.00;102562.31;4912293;29;20040;-66
2022/12/18 08:09:31;;;;;;;5.75;5.25;;;;;;;-6.38;100.00;102562.69;4902378;29;20029;-67
2022/12/18 08:11:56;;;;;;;5.55;5.05;;;;;;;-6.28;100.00;102563.97;4892229;29;20032;-67
2022/12/18 08:14:22;;;;;;;5.90;5.40;;;;;;;-6.18;100.00;102574.16;4894019;29;20033;-67
2022/12/18 08:16:47;;;;;;;5.88;5.13;;;;;;;-6.01;100.00;102566.13;4902870;29;20032;-66
2022/12/18 08:19:13;;;;;;;5.30;4.80;;;;;;;-5.79;100.00;102566.66;4907788;29;20025;-66
2022/12/18 08:21:41;;;;;;;4.88;4.47;;;;;;;-5.66;100.00;102576.72;4891918;29;20167;-67
2022/12/18 08:24:06;;;;;;;5.57;5.07;;;;;;;-5.56;100.00;102577.94;4893863;29;20661;-66
2022/12/18 08:26:32;;;;;;;5.57;5.07;;;;;;;-5.50;100.00;102585.63;4892038;29;20070;-64
2022/12/18 08:28:58;;;;;;;5.22;4.75;;;;;;;-5.37;100.00;102585.81;4892858;29;20043;-67
2022/12/18 08:31:25;;;;;;;5.30;4.80;;;;;;;-5.29;100.00;102576.41;4893416;29;20115;-65
2022/12/18 08:33:52;;;;;;;5.05;4.65;;;;;;;-5.24;100.00;102566.28;4892338;29;20028;-67
2022/12/18 08:36:17;;;;;;;5.55;5.05;;;;;;;-5.15;100.00;102572.09;4893575;29;20064;-67
2022/12/18 08:38:43;;;;;;;5.63;5.13;;;;;;;-5.07;100.00;102572.50;4892771;29;20107;-65
2022/12/18 08:41:13;;;;;;;5.30;4.80;;;;;;;-4.97;100.00;102573.72;4891155;29;20039;-62
2022/12/18 08:46:25;;;;;;;5.50;5.00;;;;;;;-4.86;100.00;102565.09;4892019;29;20433;-67
2022/12/18 08:48:51;;;;;;;5.55;5.05;;;;;;;-4.81;100.00;102555.81;4892146;29;20037;-67
2022/12/18 08:51:17;;;;;;;5.20;4.70;;;;;;;-4.83;100.00;102547.00;4892887;29;20360;-62
2022/12/18 08:53:43;;;;;;;4.75;4.35;;;;;;;-4.82;100.00;102539.81;4892013;29;20031;-66
2022/12/18 08:56:08;;;;;;;5.40;4.90;;;;;;;-4.72;100.00;102549.91;4892019;29;20036;-66
2022/12/18 08:58:33;;;;;;;5.20;4.70;;;;;;;-4.58;100.00;102540.19;4892805;29;20451;-66
2022/12/18 09:01:04;;;;;;;5.20;4.70;;;;;;;-4.45;100.00;102549.25;4892395;29;20448;-66
2022/12/18 09:03:30;;;;;;;5.15;4.75;;;;;;;-4.38;100.00;102541.69;4892438;29;20060;-65
2022/12/18 09:05:55;;;;;;;5.32;4.82;;;;;;;-4.31;99.34;102532.31;4892682;29;20060;-67
2022/12/18 09:08:21;;;;;;;5.22;4.72;;;;;;;-4.20;99.55;102540.59;4891799;29;20059;-62
2022/12/18 09:10:48;;;;;;;5.28;4.78;;;;;;;-4.09;99.42;102542.59;4891482;29;20336;-66
2022/12/18 09:13:15;;;;;;;5.30;4.80;;;;;;;-4.02;98.34;102543.94;4906768;29;20484;-65
2022/12/18 09:15:45;;;;;;;5.00;4.55;;;;;;;-4.01;98.73;102546.53;4891980;29;20285;-67
2022/12/18 09:18:10;;;;;;;5.10;4.60;;;;;;;-3.97;97.53;102544.53;4892245;29;20091;-66
2022/12/18 09:20:37;;;;;;;4.63;4.22;;;;;;;-3.95;98.02;102542.63;4892862;29;20029;-64
2022/12/18 09:23:03;;;;;;;5.15;4.75;;;;;;;-3.95;98.18;102564.97;4891324;29;20028;-67
2022/12/18 09:25:33;;;;;;;5.20;4.70;;;;;;;-3.85;98.60;102567.94;4891768;29;20044;-64
2022/12/18 09:28:04;;;;;;;5.20;4.70;;;;;;;-3.84;97.73;102569.66;4891630;29;20037;-66
2022/12/18 09:30:29;;;;;;;5.60;5.10;;;;;;;-3.84;97.23;102576.84;4891528;29;20083;-65
2022/12/18 09:32:55;;;;;;;5.18;4.68;;;;;;;-3.78;97.77;102568.41;4890646;29;20387;-66
2022/12/18 09:35:20;;;;;;;5.25;4.75;;;;;;;-3.74;97.78;102560.06;4892941;29;20032;-68
2022/12/18 09:37:46;;;;;;;5.47;4.97;;;;;;;-3.73;97.12;102551.06;4892055;29;20032;-67
2022/12/18 09:40:18;;;;;;;5.03;4.63;;;;;;;-3.69;97.45;102541.84;4890676;29;20061;-65
2022/12/18 09:42:49;;;;;;;5.10;4.60;;;;;;;-3.62;97.00;102533.41;4892319;29;20107;-66
2022/12/18 09:45:16;;;;;;;4.80;4.40;;;;;;;-3.56;97.49;102524.97;4892592;29;20017;-66
2022/12/18 09:47:44;;;;;;;5.10;4.70;;;;;;;-3.51;97.67;102520.16;4892100;29;20025;-66
2022/12/18 09:50:26;;;;;;;5.13;4.63;;;;;;;-3.44;98.04;102516.13;4892627;29;20452;-66
2022/12/18 09:52:56;;;;;;;4.95;4.53;;;;;;;-3.30;96.86;102525.97;4892058;29;20085;-66
2022/12/18 09:55:31;;;;;;;4.78;4.38;;;;;;;-3.24;96.45;102515.69;4891793;29;20033;-66
2022/12/18 09:58:06;;;;;;;4.82;4.43;;;;;;;-3.10;96.33;102501.34;4891983;29;20484;-66
2022/12/18 10:00:31;;;;;;;4.88;4.47;;;;;;;-2.96;96.28;102492.38;4892663;29;20029;-66
2022/12/18 10:03:03;;;;;;;4.88;4.47;;;;;;;-2.83;94.39;102500.47;4892250;29;20025;-66
2022/12/18 10:06:03;;;;;;;5.43;4.93;;;;;;;-2.80;95.47;102508.31;4892260;29;20064;-66
2022/12/18 10:08:45;;;;;;;4.85;4.45;;;;;;;-2.68;94.16;102516.44;4879122;29;20053;-66
2022/12/18 10:11:46;;;;;;;5.10;4.68;;;;;;;-2.58;94.21;102514.00;4891800;29;20032;-67
2022/12/18 10:14:14;;;;;;;4.85;4.43;;;;;;;-2.43;92.94;102504.88;4888150;29;20047;-66
2022/12/18 10:16:47;;;;;;;5.05;4.55;;;;;;;-2.39;92.78;102505.50;4891926;29;20055;-63
2022/12/18 10:19:15;;;;;;;5.10;4.70;;;;;;;-2.39;92.18;102509.06;4890435;29;20021;-67
2022/12/18 10:22:10;;;;;;;5.30;4.80;;;;;;;-2.34;93.91;102500.66;4902560;29;20423;-66
2022/12/18 10:25:05;;;;;;;4.80;4.40;;;;;;;-2.37;93.70;102495.50;4910068;29;20076;-67
2022/12/18 10:27:31;;;;;;;4.53;4.05;;;;;;;-2.47;92.91;102510.56;4909574;29;20032;-66
2022/12/18 10:29:57;;;;;;;5.00;4.60;;;;;;;-2.65;92.15;102502.78;4909217;29;20403;-66
2022/12/18 10:32:25;;;;;;;4.60;4.20;;;;;;;-2.74;93.92;102492.63;4909486;29;20042;-67
2022/12/18 10:34:54;;;;;;;4.97;4.50;;;;;;;-2.64;94.59;102491.03;4910474;29;20027;-66
2022/12/18 10:37:25;;;;;;;5.13;4.65;;;;;;;-2.56;94.92;102481.59;4912656;29;20471;-67
2022/12/18 10:40:15;;;;;;;4.88;4.47;;;;;;;-2.42;94.20;102482.38;4912364;29;20032;-66
2022/12/18 10:42:41;;;;;;;5.18;4.68;;;;;;;-2.33;93.29;102464.75;4912701;29;20404;-66
2022/12/18 10:45:15;;;;;;;5.20;4.80;;;;;;;-2.24;93.10;102457.84;4912973;29;20483;-66
2022/12/18 10:47:49;;;;;;;5.20;4.80;;;;;;;-2.11;93.02;102453.31;4912243;29;20028;-67
2022/12/18 10:50:37;;;;;;;5.25;4.75;;;;;;;-2.01;92.09;102458.91;4912591;29;20250;-66
2022/12/18 10:53:04;;;;;;;5.40;4.90;;;;;;;-1.99;92.27;102448.88;4912507;29;20016;-66
2022/12/18 10:55:34;;;;;;;4.82;4.43;;;;;;;-1.99;92.23;102446.19;4910772;29;20028;-66
2022/12/18 10:58:25;;;;;;;4.72;4.32;;;;;;;-1.97;92.32;102445.13;4912282;29;20048;-66
2022/12/18 11:01:14;;;;;;;4.68;4.28;;;;;;;-2.01;92.13;102438.22;4912337;29;20025;-66
2022/12/18 11:03:57;;;;;;;5.00;4.60;;;;;;;-2.06;92.09;102435.00;4874839;29;20029;-65
2022/12/18 11:06:24;;;;;;;4.82;4.43;;;;;;;-2.13;92.66;102431.91;4874647;29;20433;-66
2022/12/18 11:09:02;;;;;;;6.03;4.78;;;;;;;-2.12;93.13;102427.38;4874420;29;20128;-65
2022/12/18 11:11:29;;;;;;;4.43;4.03;;;;;;;-2.16;93.66;102423.19;4873922;29;20045;-66
2022/12/18 11:14:06;;;;;;;5.10;4.70;;;;;;;-2.15;93.11;102430.28;4875027;29;20112;-67
2022/12/18 11:16:42;;;;;;;4.90;4.50;;;;;;;-2.13;92.16;102439.09;4874481;29;20057;-67
2022/12/18 11:19:35;;;;;;;5.35;4.85;;;;;;;-2.18;93.67;102436.75;4874892;29;20298;-63
2022/12/18 11:22:03;;;;;;;5.10;4.60;;;;;;;-2.18;93.22;102431.38;4872617;29;20504;-66
2022/12/18 11:24:31;;;;;;;4.97;4.57;;;;;;;-2.20;93.08;102427.91;4874592;29;20029;-65
2022/12/18 11:26:58;;;;;;;;;;;;;;;-2.12;94.06;102422.00;4873779;29;20033;-66
2022/12/18 11:29:29;;;;;;;4.90;4.50;;;;;;;-2.14;93.28;102411.31;4874772;29;19922;-65
2022/12/18 11:32:12;;;;;;;4.78;4.38;;;;;;;-2.10;92.68;102411.97;4874092;29;20399;-65
2022/12/18 11:34:38;;;;;;;5.03;4.63;;;;;;;-2.10;92.98;102404.75;4873823;29;20029;-65